Time;durP1;ratioP1;P1;durP2;ratioP2;P2;SDS_P1;SDS_P2;PMS_P1;PMS_P2;Temp;Humidity;BMP_temperature;BMP_pressure;BME280_temperature;BME280_humidity;BME280_pressure;Samples;Min_cycle;Max_cycle;Signal;HPM_P1;HPM_P2
2022/06/04 00:02:12;;;;;;;11.40;3.30;;;;;;;18.28;69.37;101345.59;5076383;28;20056;-74
2022/06/04 00:04:38;;;;;;;15.52;3.80;;;;;;;18.28;69.44;101346.38;5077518;28;20101;-74
2022/06/04 00:07:08;;;;;;;11.55;3.53;;;;;;;18.27;68.76;101356.03;5077505;28;20052;-75
2022/06/04 00:09:35;;;;;;;11.38;3.97;;;;;;;18.23;68.68;101344.13;5074893;28;20051;-74
2022/06/04 00:17:52;;;;;;;12.25;3.30;;;;;;;18.05;71.89;101357.69;5020794;28;20669;-74
2022/06/04 00:20:18;;;;;;;7.28;3.72;;;;;;;18.01;71.93;101348.59;5057096;28;20135;-76
2022/06/04 00:22:45;;;;;;;9.60;4.25;;;;;;;18.00;71.58;101363.81;5078457;28;20113;-73
2022/06/04 00:25:14;;;;;;;8.25;4.28;;;;;;;17.94;73.45;101355.13;5075861;28;20118;-74
2022/06/04 00:27:41;;;;;;;8.00;4.07;;;;;;;17.90;73.24;101359.22;5080095;28;20207;-74
2022/06/04 00:30:08;;;;;;;10.88;4.07;;;;;;;17.89;73.48;101341.63;5081797;28;20127;-74
2022/06/04 00:32:35;;;;;;;7.80;3.88;;;;;;;17.89;73.46;101338.84;5075617;28;20645;-74
2022/06/04 00:35:05;;;;;;;7.28;4.07;;;;;;;17.82;73.93;101325.00;5079233;28;20051;-76
2022/06/04 00:37:36;;;;;;;9.63;4.18;;;;;;;17.77;75.21;101317.13;5069150;28;20055;-73
2022/06/04 00:40:04;;;;;;;13.82;4.70;;;;;;;17.70;75.54;101322.84;5076717;28;20135;-73
2022/06/04 00:42:31;;;;;;;9.25;4.35;;;;;;;17.67;75.41;101342.50;5064607;28;20584;-73
2022/06/04 00:45:28;;;;;;;7.65;3.80;;;;;;;17.66;77.39;101344.50;5077144;28;20044;-76
2022/06/04 00:47:55;;;;;;;7.50;4.28;;;;;;;17.66;77.04;101336.09;5071505;28;20146;-74
2022/06/04 00:50:22;;;;;;;9.45;4.38;;;;;;;17.64;77.48;101329.38;5076686;28;20087;-75
2022/06/04 00:52:51;;;;;;;9.93;4.15;;;;;;;17.59;78.30;101325.06;5068580;28;20070;-74
2022/06/04 00:55:19;;;;;;;13.25;4.68;;;;;;;17.56;76.26;101328.72;5072031;28;20143;-76
2022/06/04 00:57:58;;;;;;;10.48;4.25;;;;;;;17.56;77.98;101336.34;5069615;28;20139;-74
2022/06/04 01:00:29;;;;;;;11.18;4.72;;;;;;;17.49;77.73;101345.66;5078230;28;20124;-74
2022/06/04 01:03:22;;;;;;;8.25;4.13;;;;;;;17.41;79.76;101343.38;5074069;28;20131;-76
2022/06/04 01:06:27;;;;;;;8.18;3.88;;;;;;;17.41;79.59;101346.19;5075289;28;20108;-73
2022/06/04 01:09:12;;;;;;;11.93;4.40;;;;;;;17.34;79.86;101352.72;5019956;28;20055;-73
2022/06/04 01:12:09;;;;;;;10.48;4.60;;;;;;;17.34;79.57;101354.72;5079996;28;20130;-74
2022/06/04 01:14:36;;;;;;;8.07;4.40;;;;;;;17.29;78.40;101375.59;5074067;28;20044;-75
2022/06/04 01:17:20;;;;;;;12.15;5.10;;;;;;;17.22;81.00;101377.72;5066628;28;20135;-74
2022/06/04 01:20:09;;;;;;;14.05;4.63;;;;;;;17.19;80.78;101387.75;5075266;28;20139;-73
2022/06/04 01:23:13;;;;;;;12.00;4.68;;;;;;;17.17;82.29;101384.59;5077390;28;20135;-74
2022/06/04 01:26:00;;;;;;;12.30;4.78;;;;;;;17.19;81.04;101387.75;5080712;28;20048;-72
2022/06/04 01:28:31;;;;;;;9.07;4.60;;;;;;;17.16;81.13;101390.59;5075967;28;20133;-72
2022/06/04 01:31:06;;;;;;;10.00;4.78;;;;;;;17.09;80.88;101388.72;5076414;28;20466;-76
2022/06/04 01:33:41;;;;;;;14.15;4.78;;;;;;;17.10;80.64;101395.09;5081028;28;20056;-73
2022/06/04 01:36:22;;;;;;;9.90;4.78;;;;;;;17.07;81.31;101398.75;5068730;28;20123;-72
2022/06/04 01:38:57;;;;;;;13.75;5.15;;;;;;;17.00;81.06;101390.47;5065804;28;20047;-72
2022/06/04 01:41:37;;;;;;;11.63;5.25;;;;;;;16.91;82.43;101388.22;5068995;28;20082;-73
2022/06/04 01:44:12;;;;;;;11.65;5.22;;;;;;;16.93;81.67;101398.97;5074942;28;20131;-73
2022/06/04 01:46:46;;;;;;;9.43;4.35;;;;;;;16.85;82.63;101398.31;5081471;28;20044;-73
2022/06/04 01:49:23;;;;;;;8.50;4.90;;;;;;;16.87;81.75;101407.06;5076574;28;20059;-72
2022/06/04 01:51:54;;;;;;;11.05;4.35;;;;;;;16.86;81.91;101401.88;5067186;28;20148;-74
2022/06/04 01:54:35;;;;;;;11.32;4.75;;;;;;;16.82;83.26;101404.75;5082206;28;20081;-72
2022/06/04 01:57:09;;;;;;;16.00;5.45;;;;;;;16.85;81.44;101419.88;5078268;28;20516;-74
2022/06/04 01:59:47;;;;;;;11.18;4.45;;;;;;;16.79;83.57;101418.78;5075126;28;20048;-72
2022/06/04 02:02:18;;;;;;;11.68;5.05;;;;;;;16.83;81.37;101422.31;5066948;28;20058;-74
2022/06/04 02:04:50;;;;;;;10.70;4.70;;;;;;;16.81;81.62;101416.34;5070307;28;20132;-72
2022/06/04 02:07:30;;;;;;;16.27;5.28;;;;;;;16.75;82.07;101410.47;5077077;28;20056;-72
2022/06/04 02:10:12;;;;;;;9.80;4.60;;;;;;;16.71;82.95;101408.94;5084817;28;20051;-74
2022/06/04 02:12:41;;;;;;;10.00;4.40;;;;;;;16.68;83.17;101401.38;5072383;28;20459;-75
2022/06/04 02:15:12;;;;;;;13.07;5.28;;;;;;;16.65;82.63;101394.66;5081123;28;20052;-72
2022/06/04 02:17:42;;;;;;;12.18;4.20;;;;;;;16.67;83.08;101408.97;5082479;28;20499;-74
2022/06/04 02:20:10;;;;;;;10.57;4.63;;;;;;;16.67;82.79;101405.41;5077423;28;20043;-73
2022/06/04 02:22:37;;;;;;;9.45;4.60;;;;;;;16.66;82.32;101409.38;5078523;28;20074;-74
2022/06/04 02:25:07;;;;;;;10.32;4.43;;;;;;;16.59;83.10;101406.69;5078394;28;20428;-73
2022/06/04 02:27:34;;;;;;;15.65;5.32;;;;;;;16.60;82.95;101408.31;5082683;28;20052;-74
2022/06/04 02:30:02;;;;;;;13.75;5.13;;;;;;;16.58;82.65;101413.50;5078149;28;20505;-73
2022/06/04 02:32:43;;;;;;;10.38;4.35;;;;;;;16.54;83.95;101407.19;5071889;28;20048;-74
2022/06/04 02:35:19;;;;;;;8.82;4.65;;;;;;;16.50;84.11;101412.03;5077489;28;20127;-73
2022/06/04 02:37:58;;;;;;;10.10;5.03;;;;;;;16.47;83.82;101407.28;5086748;28;20059;-73
2022/06/04 02:40:31;;;;;;;10.93;4.95;;;;;;;16.45;83.22;101388.16;5071081;28;20048;-75
2022/06/04 02:43:29;;;;;;;10.35;4.68;;;;;;;16.44;83.41;101396.97;5079413;28;20481;-73
2022/06/04 02:46:13;;;;;;;9.95;5.05;;;;;;;16.43;84.33;101403.75;5068987;28;20046;-73
2022/06/04 02:48:46;;;;;;;10.10;4.70;;;;;;;16.45;84.47;101401.31;5068454;28;20049;-74
2022/06/04 02:51:21;;;;;;;15.45;5.40;;;;;;;16.45;84.12;101398.53;5080840;28;20098;-74
2022/06/04 02:53:49;;;;;;;12.90;5.88;;;;;;;16.45;84.51;101396.53;5082331;28;20045;-77
2022/06/04 02:56:21;;;;;;;10.48;5.13;;;;;;;16.44;84.06;101396.97;5087256;28;20049;-73
2022/06/04 02:58:54;;;;;;;12.32;5.57;;;;;;;16.44;83.98;101396.97;5081455;28;20142;-74
2022/06/04 03:01:22;;;;;;;10.82;5.07;;;;;;;16.40;83.79;101394.16;5077991;28;20044;-73
2022/06/04 03:03:49;;;;;;;15.45;5.35;;;;;;;16.36;84.09;101384.25;5071119;28;20115;-74
2022/06/04 03:06:28;;;;;;;13.90;5.22;;;;;;;16.36;84.48;101398.22;5081669;28;20540;-73
2022/06/04 03:08:54;;;;;;;12.25;5.38;;;;;;;16.35;84.81;101375.09;5086468;28;20115;-72
2022/06/04 03:11:21;;;;;;;10.63;4.97;;;;;;;16.33;85.00;101373.94;5073562;28;20047;-73
2022/06/04 03:13:48;;;;;;;11.68;4.93;;;;;;;16.32;84.64;101373.16;5074341;28;20147;-73
2022/06/04 03:16:16;;;;;;;15.57;5.32;;;;;;;16.34;84.94;101389.50;5075377;28;20482;-74
2022/06/04 03:18:43;;;;;;;10.50;5.03;;;;;;;16.30;84.91;101374.78;5083488;28;20819;-74
2022/06/04 03:21:11;;;;;;;10.95;5.25;;;;;;;16.24;86.06;101370.88;5071765;28;20048;-74
2022/06/04 03:23:38;;;;;;;14.00;5.45;;;;;;;16.18;86.10;101370.56;5081882;28;20139;-73
2022/06/04 03:26:05;;;;;;;12.02;5.00;;;;;;;16.15;86.73;101376.97;5071289;28;20428;-73
2022/06/04 03:28:32;;;;;;;12.05;5.53;;;;;;;16.17;85.70;101366.19;5077045;28;20135;-75
2022/06/04 03:30:59;;;;;;;11.43;5.55;;;;;;;16.17;85.70;101368.19;5072953;28;20055;-75
2022/06/04 03:33:26;;;;;;;12.13;5.43;;;;;;;16.19;85.64;101365.75;5071477;28;20412;-74
2022/06/04 03:35:52;;;;;;;15.20;5.97;;;;;;;16.16;86.50;101370.19;5079285;28;20066;-75
2022/06/04 03:38:19;;;;;;;12.82;5.57;;;;;;;16.16;86.17;101363.81;5070542;28;20135;-73
2022/06/04 03:40:45;;;;;;;13.75;6.65;;;;;;;16.15;86.06;101373.38;5067864;28;20163;-73
2022/06/04 03:43:12;;;;;;;11.70;5.18;;;;;;;16.14;86.23;101369.81;5070399;28;20072;-74
2022/06/04 03:45:38;;;;;;;14.77;5.10;;;;;;;16.13;87.14;101365.44;5077731;28;20044;-74
2022/06/04 03:48:05;;;;;;;14.73;5.70;;;;;;;16.11;87.50;101353.91;5080920;28;20062;-73
2022/06/04 03:50:32;;;;;;;8.90;4.78;;;;;;;16.09;87.51;101361.09;5075265;28;20059;-75
2022/06/04 03:52:59;;;;;;;15.00;6.68;;;;;;;16.06;87.75;101373.91;5067452;28;20093;-74
2022/06/04 03:55:27;;;;;;;13.63;5.57;;;;;;;16.07;87.12;101394.25;5085384;28;20523;-73
2022/06/04 03:57:54;;;;;;;14.73;6.07;;;;;;;16.04;87.38;101407.03;5070016;28;20059;-74
2022/06/04 04:00:27;;;;;;;16.50;5.93;;;;;;;16.06;87.91;101401.03;5068523;28;20635;-73
2022/06/04 04:02:56;;;;;;;12.13;5.45;;;;;;;16.07;88.05;101411.00;5083108;28;20143;-74
2022/06/04 04:05:30;;;;;;;11.98;5.80;;;;;;;16.04;87.83;101421.00;5081341;28;20064;-74
2022/06/04 04:07:58;;;;;;;12.35;6.03;;;;;;;16.07;87.88;101411.78;5077196;28;20130;-74
2022/06/04 04:10:27;;;;;;;14.30;6.10;;;;;;;16.12;88.01;101407.72;5082705;28;20059;-73
2022/06/04 04:12:54;;;;;;;12.07;5.80;;;;;;;16.04;88.34;101407.03;5079196;28;20573;-73
2022/06/04 04:15:22;;;;;;;13.90;6.15;;;;;;;16.09;87.97;101405.75;5083663;28;20109;-73
2022/06/04 04:17:50;;;;;;;15.00;6.35;;;;;;;16.11;87.55;101431.28;5079703;28;20067;-74
2022/06/04 04:20:24;;;;;;;13.75;6.20;;;;;;;16.10;88.03;101422.09;5067194;28;20108;-73
2022/06/04 04:22:51;;;;;;;13.85;5.57;;;;;;;16.10;87.70;101421.31;5076441;28;20229;-74
2022/06/04 04:25:20;;;;;;;13.55;5.90;;;;;;;16.11;88.21;101422.91;5078587;28;20055;-75
2022/06/04 04:27:47;;;;;;;11.63;5.53;;;;;;;16.09;88.14;101428.91;5072461;28;20138;-73
2022/06/04 04:30:17;;;;;;;13.35;6.10;;;;;;;16.10;87.59;101418.53;5077613;28;20059;-76
2022/06/04 04:32:44;;;;;;;12.50;5.65;;;;;;;16.10;88.53;101426.91;5070908;28;20463;-75
2022/06/04 04:35:20;;;;;;;9.20;3.95;;;;;;;16.07;89.04;101419.38;5069168;28;20916;-73
2022/06/04 04:37:48;;;;;;;14.95;6.18;;;;;;;16.12;88.02;101422.47;5084649;28;20048;-74
2022/06/04 04:40:17;;;;;;;12.20;6.10;;;;;;;16.18;88.06;101428.38;5072091;28;20058;-73
2022/06/04 04:42:45;;;;;;;12.23;6.20;;;;;;;16.19;87.54;101433.56;5081677;28;20051;-74
2022/06/04 04:45:12;;;;;;;14.27;6.15;;;;;;;16.19;87.52;101433.56;5068429;28;20056;-73
2022/06/04 04:47:41;;;;;;;11.48;5.65;;;;;;;16.23;87.42;101441.91;5066679;28;20102;-74
2022/06/04 04:50:17;;;;;;;14.73;6.00;;;;;;;16.25;87.08;101436.66;5066823;28;20127;-73
2022/06/04 04:52:45;;;;;;;17.00;6.05;;;;;;;16.26;87.48;101419.50;5074727;28;20055;-74
2022/06/04 04:55:12;;;;;;;12.60;5.60;;;;;;;16.27;87.55;101411.94;5076781;28;20044;-73
2022/06/04 04:57:39;;;;;;;11.25;5.22;;;;;;;16.29;87.54;101412.28;5073890;28;20058;-74
2022/06/04 05:00:07;;;;;;;12.90;5.75;;;;;;;16.37;86.48;101420.16;5083122;28;20043;-73
2022/06/04 05:02:34;;;;;;;8.70;4.40;;;;;;;16.33;87.50;101427.00;5073111;28;20132;-72
2022/06/04 05:05:01;;;;;;;12.40;4.68;;;;;;;16.34;87.20;101439.75;5076568;28;20055;-74
2022/06/04 05:07:27;;;;;;;12.70;5.55;;;;;;;16.32;87.20;101423.41;5078461;28;20128;-74
2022/06/04 05:09:54;;;;;;;17.90;6.47;;;;;;;16.36;86.94;101440.13;5081191;28;20041;-73
2022/06/04 05:12:21;;;;;;;11.85;5.20;;;;;;;16.39;87.31;101428.09;5072379;28;20110;-75
2022/06/04 05:14:47;;;;;;;12.80;5.03;;;;;;;16.40;88.52;101421.31;5066680;28;20505;-74
2022/06/04 05:17:13;;;;;;;12.13;6.68;;;;;;;16.42;87.31;101435.66;5064991;28;20051;-76
2022/06/04 05:19:40;;;;;;;10.90;5.78;;;;;;;16.49;86.35;101441.16;5065843;28;20136;-74
2022/06/04 05:22:07;;;;;;;13.35;5.68;;;;;;;16.54;86.28;101433.09;5073802;28;20139;-74
2022/06/04 05:24:35;;;;;;;14.82;6.35;;;;;;;16.59;86.94;101441.03;5076192;28;20433;-74
2022/06/04 05:27:03;;;;;;;12.75;6.20;;;;;;;16.65;86.40;101441.34;5066148;28;20057;-74
2022/06/04 05:29:31;;;;;;;10.88;5.85;;;;;;;16.70;85.70;101450.03;5078400;28;20744;-73
2022/06/04 05:31:59;;;;;;;12.32;5.82;;;;;;;16.73;85.49;101451.19;5076101;28;20131;-75
2022/06/04 05:34:26;;;;;;;13.05;5.65;;;;;;;16.80;84.81;101445.50;5076009;28;20151;-75
2022/06/04 05:36:53;;;;;;;14.65;6.20;;;;;;;16.84;84.51;101449.81;5075392;28;20122;-73
2022/06/04 05:39:21;;;;;;;10.88;4.88;;;;;;;16.89;84.93;101451.38;5077479;28;20052;-75
2022/06/04 05:41:48;;;;;;;15.85;6.15;;;;;;;16.96;84.66;101459.63;5071148;28;20089;-75
2022/06/04 05:44:15;;;;;;;12.43;6.53;;;;;;;16.95;84.05;101463.66;5083775;28;20554;-73
2022/06/04 05:46:42;;;;;;;11.77;5.53;;;;;;;17.01;83.56;101473.16;5072559;28;20053;-74
2022/06/04 05:49:16;;;;;;;12.40;5.78;;;;;;;17.03;83.56;101476.31;5078965;28;20063;-74
2022/06/04 05:51:44;;;;;;;10.85;5.40;;;;;;;17.05;82.96;101485.06;5077564;28;20070;-73
2022/06/04 05:54:12;;;;;;;11.93;5.40;;;;;;;17.06;83.10;101481.06;5082361;28;20048;-74
2022/06/04 05:56:43;;;;;;;11.90;5.90;;;;;;;17.08;82.71;101484.22;5076201;28;20560;-73
2022/06/04 05:59:13;;;;;;;12.27;5.63;;;;;;;17.08;82.67;101484.22;5079835;28;20139;-73
2022/06/04 06:01:41;;;;;;;12.52;5.82;;;;;;;17.10;82.79;101490.97;5072445;28;20080;-73
2022/06/04 06:04:10;;;;;;;11.35;5.93;;;;;;;17.11;82.75;101486.19;5092826;28;20834;-73
2022/06/04 06:06:43;;;;;;;13.60;5.47;;;;;;;17.23;82.50;101493.97;5082520;28;20113;-75
2022/06/04 06:09:12;;;;;;;12.32;5.43;;;;;;;17.29;82.65;101490.28;5080914;28;20044;-74
2022/06/04 06:11:41;;;;;;;12.65;5.90;;;;;;;17.28;81.87;101491.47;5077835;28;20050;-76
2022/06/04 06:14:08;;;;;;;9.95;4.97;;;;;;;17.34;81.98;101488.97;5069282;28;20135;-74
2022/06/04 06:16:37;;;;;;;16.70;7.03;;;;;;;17.31;81.42;101490.63;5080448;28;20052;-74
2022/06/04 06:19:04;;;;;;;10.55;4.63;;;;;;;17.39;81.52;101506.06;5073793;28;20117;-73
2022/06/04 06:21:33;;;;;;;14.43;6.05;;;;;;;17.48;80.94;101508.34;5074892;28;20170;-74
2022/06/04 06:24:00;;;;;;;11.13;5.07;;;;;;;17.49;80.79;101512.75;5079071;28;20070;-74
2022/06/04 06:26:31;;;;;;;11.63;5.43;;;;;;;17.51;80.46;101516.69;5078726;28;20793;-75
2022/06/04 06:29:03;;;;;;;15.35;5.45;;;;;;;17.51;80.83;101516.69;5082789;28;20048;-75
2022/06/04 06:31:32;;;;;;;12.88;6.68;;;;;;;17.56;80.05;101507.81;5077374;28;20555;-73
2022/06/04 06:33:59;;;;;;;11.75;5.85;;;;;;;17.62;80.10;101506.09;5078325;28;20048;-74
2022/06/04 06:36:26;;;;;;;11.52;5.78;;;;;;;17.75;79.56;101506.28;5079826;28;20048;-74
2022/06/04 06:38:53;;;;;;;12.75;5.95;;;;;;;17.87;79.36;101506.47;5081146;28;20083;-74
2022/06/04 06:41:23;;;;;;;15.18;5.93;;;;;;;18.01;79.25;101511.00;5075449;28;20049;-73
2022/06/04 06:43:50;;;;;;;16.65;5.93;;;;;;;18.11;79.13;101515.59;5082330;28;20084;-74
2022/06/04 06:46:25;;;;;;;12.02;6.13;;;;;;;18.17;78.37;101502.69;5080376;28;20052;-74
2022/06/04 06:48:55;;;;;;;12.63;5.70;;;;;;;18.28;77.31;101508.06;5078672;28;20055;-72
2022/06/04 06:51:36;;;;;;;11.57;5.57;;;;;;;18.34;76.99;101498.75;5071711;28;20208;-73
2022/06/04 06:54:03;;;;;;;12.00;5.72;;;;;;;18.44;76.37;101506.16;5086110;28;20048;-71
2022/06/04 06:56:33;;;;;;;11.55;5.70;;;;;;;18.59;76.42;101506.66;5081106;28;20501;-73
2022/06/04 06:59:00;;;;;;;11.00;4.50;;;;;;;18.68;75.82;101510.47;5078851;28;20087;-71
2022/06/04 07:01:28;;;;;;;12.85;5.35;;;;;;;18.67;74.39;101508.88;5078241;28;20052;-72
2022/06/04 07:03:55;;;;;;;11.55;5.25;;;;;;;18.72;73.72;101508.34;5076286;28;20056;-73
2022/06/04 07:06:34;;;;;;;13.65;5.88;;;;;;;18.82;73.57;101515.75;5081557;28;20079;-72
2022/06/04 07:09:04;;;;;;;11.75;5.68;;;;;;;18.92;73.44;101520.31;5080954;28;20112;-71
2022/06/04 07:11:32;;;;;;;12.23;6.00;;;;;;;18.95;73.47;101513.06;5069570;28;20513;-68
2022/06/04 07:13:59;;;;;;;12.32;6.07;;;;;;;19.03;72.15;101520.88;5072098;28;20044;-71
2022/06/04 07:16:25;;;;;;;12.88;5.60;;;;;;;19.06;71.85;101511.59;5075193;28;20129;-71
2022/06/04 07:18:52;;;;;;;12.50;6.03;;;;;;;19.18;71.18;101527.75;5074861;28;20071;-71
2022/06/04 07:21:19;;;;;;;10.75;5.20;;;;;;;19.31;71.09;101525.84;5066503;28;20040;-71
2022/06/04 07:23:47;;;;;;;12.43;5.55;;;;;;;19.39;69.99;101530.06;5079906;28;20134;-72
2022/06/04 07:26:14;;;;;;;9.52;5.18;;;;;;;19.49;70.00;101525.41;5073973;28;20508;-72
2022/06/04 07:28:41;;;;;;;11.13;5.78;;;;;;;19.61;69.33;101533.91;5083502;28;20064;-68
2022/06/04 07:31:09;;;;;;;12.20;5.72;;;;;;;19.66;68.30;101526.97;5070993;28;20170;-71
2022/06/04 07:33:36;;;;;;;12.77;5.90;;;;;;;19.72;68.23;101536.44;5075536;28;20131;-71
2022/06/04 07:36:04;;;;;;;11.10;5.50;;;;;;;19.78;67.83;101532.66;5081319;28;20136;-72
2022/06/04 07:38:30;;;;;;;13.27;6.22;;;;;;;19.87;67.63;101541.25;5071631;28;20434;-72
2022/06/04 07:40:57;;;;;;;14.50;6.07;;;;;;;19.84;66.99;101546.97;5078588;28;20044;-73
2022/06/04 07:43:23;;;;;;;13.10;6.32;;;;;;;19.88;66.77;101542.81;5074530;28;20056;-72
2022/06/04 07:45:50;;;;;;;13.05;6.18;;;;;;;19.92;66.83;101548.38;5076855;28;20048;-73
2022/06/04 07:48:17;;;;;;;12.52;5.78;;;;;;;19.98;67.00;101541.75;5075143;28;20076;-72
2022/06/04 07:50:44;;;;;;;13.88;5.70;;;;;;;19.99;67.02;101539.75;5076106;28;20598;-73
2022/06/04 07:53:10;;;;;;;14.07;5.90;;;;;;;19.98;66.66;101555.81;5069946;28;20075;-73
2022/06/04 07:55:42;;;;;;;11.30;5.32;;;;;;;19.94;66.02;101555.13;5084675;28;20055;-73
2022/06/04 07:58:09;;;;;;;13.18;6.32;;;;;;;19.96;66.62;101557.47;5071936;28;20139;-73
2022/06/04 08:00:38;;;;;;;11.60;5.53;;;;;;;19.93;66.53;101547.94;5082446;28;20052;-73
2022/06/04 08:03:07;;;;;;;12.68;6.80;;;;;;;19.95;66.46;101553.88;5067239;28;20456;-73
2022/06/04 08:05:34;;;;;;;16.00;6.82;;;;;;;19.95;66.19;101555.91;5077010;28;20064;-72
2022/06/04 08:08:08;;;;;;;14.20;6.93;;;;;;;19.97;66.13;101557.03;5077844;28;20081;-72
2022/06/04 08:10:35;;;;;;;11.70;5.40;;;;;;;19.98;66.02;101550.19;5074054;28;20059;-72
2022/06/04 08:13:01;;;;;;;11.85;6.07;;;;;;;20.00;65.87;101549.75;5066546;28;20052;-72
2022/06/04 08:15:28;;;;;;;10.27;5.65;;;;;;;20.06;65.86;101543.16;5074739;28;20048;-74
2022/06/04 08:17:55;;;;;;;11.35;5.88;;;;;;;20.15;65.88;101539.75;5079496;28;20044;-72
2022/06/04 08:20:21;;;;;;;12.48;6.10;;;;;;;20.17;65.77;101538.06;5072656;28;20048;-72
2022/06/04 08:22:48;;;;;;;12.02;5.90;;;;;;;20.26;65.27;101537.44;5080050;28;20131;-73
2022/06/04 08:25:16;;;;;;;12.63;5.68;;;;;;;20.27;64.85;101542.59;5080099;28;20512;-71
2022/06/04 08:27:44;;;;;;;13.50;6.47;;;;;;;20.32;64.79;101533.63;5081095;28;20048;-75
2022/06/04 08:30:13;;;;;;;15.43;5.55;;;;;;;20.55;64.47;101543.03;5081046;28;20048;-74
2022/06/04 08:32:40;;;;;;;12.07;5.63;;;;;;;20.62;64.10;101531.56;5074323;28;20056;-71
2022/06/04 08:35:07;;;;;;;11.10;5.60;;;;;;;20.77;63.97;101536.34;5082864;28;20649;-70
2022/06/04 08:37:33;;;;;;;15.02;6.93;;;;;;;20.89;62.44;101532.72;5073573;28;20052;-73
2022/06/04 08:40:01;;;;;;;9.48;5.43;;;;;;;20.80;61.10;101534.66;5066875;28;20048;-71
2022/06/04 08:42:44;;;;;;;11.68;5.78;;;;;;;20.86;61.14;101538.47;5073067;28;20056;-71
2022/06/04 08:45:12;;;;;;;13.63;6.18;;;;;;;21.00;60.88;101540.88;5070030;28;20145;-73
2022/06/04 08:47:50;;;;;;;11.23;6.15;;;;;;;21.12;60.47;101540.13;5074872;28;20082;-71
2022/06/04 08:50:23;;;;;;;12.07;5.93;;;;;;;21.26;60.31;101550.94;5074811;28;20189;-71
2022/06/04 08:52:52;;;;;;;14.80;6.32;;;;;;;21.33;59.85;101556.31;5077456;28;20147;-72
2022/06/04 08:58:44;;;;;;;12.60;5.53;;;;;;;21.61;59.89;101561.03;5082265;28;20051;-71
2022/06/04 09:01:14;;;;;;;14.32;5.85;;;;;;;21.72;58.90;101567.09;5077570;28;20095;-71
2022/06/04 09:04:24;;;;;;;10.90;5.85;;;;;;;21.67;58.95;101564.84;5073363;28;20121;-69
2022/06/04 09:07:22;;;;;;;13.32;5.50;;;;;;;21.70;57.31;101578.81;5080322;28;20102;-71
2022/06/04 09:10:06;;;;;;;10.65;5.57;;;;;;;21.75;56.99;101571.84;5079006;28;20135;-70
2022/06/04 09:12:48;;;;;;;15.07;5.35;;;;;;;21.80;57.09;101586.13;5076445;28;20467;-71
2022/06/04 09:15:15;;;;;;;9.75;5.07;;;;;;;21.86;57.46;101592.78;5077413;28;20428;-71
2022/06/04 09:17:50;;;;;;;10.88;5.43;;;;;;;21.91;56.76;101585.78;5083079;28;20058;-72
2022/06/04 09:20:19;;;;;;;13.13;6.32;;;;;;;21.90;56.52;101575.78;5075349;28;20044;-71
2022/06/04 09:22:48;;;;;;;12.98;6.00;;;;;;;21.88;56.74;101575.44;5096729;28;20068;-74
2022/06/04 09:25:18;;;;;;;13.18;6.28;;;;;;;21.96;57.03;101576.75;5078145;28;20551;-76
2022/06/04 09:27:47;;;;;;;11.45;5.75;;;;;;;21.97;56.71;101590.38;5072433;28;20131;-74
2022/06/04 09:30:34;;;;;;;8.35;4.88;;;;;;;21.99;56.06;101581.47;5076473;28;20079;-72
2022/06/04 09:33:09;;;;;;;11.10;5.63;;;;;;;22.03;55.64;101570.88;5069259;28;20232;-74
2022/06/04 09:35:39;;;;;;;12.30;5.38;;;;;;;21.98;55.91;101571.47;5077303;28;20072;-72
2022/06/04 09:38:18;;;;;;;14.23;6.38;;;;;;;22.03;55.88;101573.69;5078040;28;20159;-74
2022/06/04 09:40:58;;;;;;;12.88;5.78;;;;;;;22.16;54.80;101586.50;5091189;28;20048;-72
2022/06/04 09:43:25;;;;;;;12.73;5.97;;;;;;;22.23;54.75;101574.19;5080866;28;20133;-72
2022/06/04 09:46:07;;;;;;;12.55;6.38;;;;;;;22.28;54.41;101577.19;5072393;28;20072;-72
2022/06/04 09:48:38;;;;;;;13.38;5.93;;;;;;;22.28;54.50;101580.03;5078516;28;20057;-71
2022/06/04 09:51:18;;;;;;;11.55;5.95;;;;;;;22.32;54.11;101572.25;5061163;28;20052;-79
2022/06/04 09:53:48;;;;;;;12.60;6.95;;;;;;;22.39;54.19;101569.16;5055379;28;20063;-74
2022/06/04 09:56:25;;;;;;;11.18;6.45;;;;;;;22.41;54.45;101575.13;5061765;28;20137;-75
2022/06/04 09:58:52;;;;;;;11.35;5.97;;;;;;;22.41;54.35;101571.53;5059931;28;20058;-72
2022/06/04 10:01:24;;;;;;;12.98;5.38;;;;;;;22.37;54.25;101573.66;5059293;28;20048;-75
2022/06/04 10:04:10;;;;;;;10.95;5.72;;;;;;;22.24;54.11;101573.72;5060194;28;20050;-77
2022/06/04 10:06:37;;;;;;;12.23;6.30;;;;;;;22.26;54.56;101576.09;5059768;28;20046;-75
2022/06/04 10:12:03;;;;;;;10.52;5.60;;;;;;;22.48;54.96;101582.56;5059448;28;20945;-74
2022/06/04 10:14:38;;;;;;;10.75;5.90;;;;;;;22.54;54.85;101580.72;5059988;28;20521;-74
2022/06/04 10:17:06;;;;;;;;;;;;;;;22.66;53.91;101571.44;5062072;28;20135;-74
2022/06/04 10:19:34;;;;;;;13.38;6.57;;;;;;;22.72;53.02;101561.91;5060081;28;20665;-72
2022/06/04 10:22:13;;;;;;;13.82;6.25;;;;;;;22.69;53.65;101560.00;5057515;28;20052;-72
2022/06/04 10:25:03;;;;;;;13.35;6.70;;;;;;;22.88;53.28;101566.53;5061618;28;20063;-72
2022/06/04 10:28:01;;;;;;;16.88;6.68;;;;;;;23.02;52.84;101568.84;5060061;28;20127;-72
2022/06/04 10:30:48;;;;;;;12.45;5.95;;;;;;;23.30;53.30;101572.59;5080412;28;20044;-73
2022/06/04 10:33:40;;;;;;;15.23;6.72;;;;;;;23.38;51.48;101571.84;5079174;28;20753;-71
2022/06/04 10:36:17;;;;;;;14.13;6.60;;;;;;;23.53;51.77;101570.03;5065559;28;20516;-74
2022/06/04 10:39:08;;;;;;;11.50;6.25;;;;;;;23.62;51.39;101563.63;5061275;28;20051;-74
2022/06/04 10:41:43;;;;;;;13.85;6.10;;;;;;;23.79;51.17;101560.03;5060930;28;20054;-74
2022/06/04 10:44:31;;;;;;;12.25;6.45;;;;;;;23.79;50.64;101562.84;5061246;28;20131;-73
2022/06/04 10:46:57;;;;;;;17.58;7.40;;;;;;;24.04;50.30;101567.47;5057062;28;20147;-73
2022/06/04 10:49:29;;;;;;;11.55;5.80;;;;;;;24.15;49.52;101559.31;5064575;28;20152;-73
2022/06/04 10:52:31;;;;;;;16.13;7.40;;;;;;;24.29;48.74;101556.66;5060348;28;20394;-73
2022/06/04 10:55:16;;;;;;;14.85;6.60;;;;;;;24.44;49.27;101560.41;5059251;28;20127;-73
2022/06/04 10:57:52;;;;;;;13.13;7.53;;;;;;;24.55;48.06;101557.09;5060509;28;20057;-72
2022/06/04 11:00:31;;;;;;;14.43;6.22;;;;;;;24.62;47.82;101551.91;5057828;28;21084;-72
2022/06/04 11:03:01;;;;;;;12.90;6.90;;;;;;;24.78;48.10;101557.25;5057602;28;20747;-73
2022/06/04 11:05:35;;;;;;;11.75;6.85;;;;;;;24.82;47.38;101546.56;5060292;28;20051;-72
2022/06/04 11:08:10;;;;;;;14.27;7.25;;;;;;;24.84;46.97;101555.34;5057281;28;20084;-75
2022/06/04 11:10:40;;;;;;;13.00;6.70;;;;;;;25.01;47.42;101555.78;5061874;28;20054;-77
2022/06/04 11:13:32;;;;;;;17.25;6.68;;;;;;;25.31;46.86;101562.47;5059782;28;20101;-76
2022/06/04 11:16:22;;;;;;;12.25;6.32;;;;;;;25.54;45.49;101558.91;5050732;28;21434;-75
2022/06/04 11:19:25;;;;;;;15.70;6.03;;;;;;;25.70;45.10;101564.13;5057441;28;20064;-77
2022/06/04 11:22:01;;;;;;;14.65;6.80;;;;;;;25.77;45.20;101560.94;5055184;28;20157;-74
2022/06/04 11:24:35;;;;;;;11.95;6.30;;;;;;;25.93;44.89;101564.16;5073267;28;20063;-76
2022/06/04 11:27:14;;;;;;;12.77;6.00;;;;;;;26.08;44.44;101572.75;5064496;28;20067;-75
2022/06/04 11:29:41;;;;;;;12.73;7.35;;;;;;;26.12;44.53;101568.44;5059240;28;20149;-77
2022/06/04 11:32:29;;;;;;;14.40;6.53;;;;;;;26.15;44.73;101578.81;5055221;28;21512;-75
2022/06/04 11:35:14;;;;;;;15.65;6.78;;;;;;;26.45;43.63;101574.00;5064220;28;20051;-74
2022/06/04 11:38:06;;;;;;;12.88;7.68;;;;;;;26.82;42.85;101566.72;5062239;28;20127;-75
2022/06/04 11:41:02;;;;;;;10.95;5.47;;;;;;;27.19;41.84;101565.84;5059327;28;20143;-75
2022/06/04 11:43:45;;;;;;;;;;;;;;;27.73;41.19;101569.28;5052337;28;20106;-75
2022/06/04 11:46:39;;;;;;;10.48;5.32;;;;;;;28.22;40.30;101574.84;5058859;28;20008;-78
2022/06/04 11:49:41;;;;;;;10.38;5.50;;;;;;;28.66;39.76;101573.31;5064693;28;20052;-79
2022/06/04 11:52:21;;;;;;;10.85;5.75;;;;;;;29.27;39.40;101573.91;5042519;28;20135;-78
2022/06/04 11:55:05;;;;;;;11.98;5.75;;;;;;;29.56;37.25;101576.44;5055892;28;20079;-74
2022/06/04 11:57:41;;;;;;;10.15;5.70;;;;;;;29.82;37.50;101568.59;5058242;28;20056;-76